Time;durP1;ratioP1;P1;durP2;ratioP2;P2;SDS_P1;SDS_P2;PMS_P1;PMS_P2;Temp;Humidity;BMP_temperature;BMP_pressure;BME280_temperature;BME280_humidity;BME280_pressure;Samples;Min_cycle;Max_cycle;Signal;HPM_P1;HPM_P2
2023/03/12 00:02:05;;;;;;;;;;;;;;;20.80;35.46;99604.11;103527;1310;61439;-81
2023/03/12 00:04:31;;;;;;;;;;;;;;;20.79;35.32;99609.90;103556;1312;61337;-81
2023/03/12 00:06:56;;;;;;;;;;;;;;;20.78;35.40;99610.83;103767;1308;61303;-81
2023/03/12 00:09:22;;;;;;;;;;;;;;;20.78;35.50;99616.92;103613;1308;61461;-81
2023/03/12 00:11:47;;;;;;;;;;;;;;;20.78;35.44;99621.75;103607;1308;61325;-81
2023/03/12 00:14:13;;;;;;;;;;;;;;;20.78;35.25;99622.13;103574;1308;72621;-81
2023/03/12 00:16:38;;;;;;;;;;;;;;;20.77;35.27;99623.43;103743;1309;61508;-81
2023/03/12 00:19:04;;;;;;;;;;;;;;;20.77;35.33;99622.03;103597;1309;61317;-81
2023/03/12 00:21:30;;;;;;;;;;;;;;;20.77;35.21;99628.29;103525;1308;61719;-81
2023/03/12 00:23:56;;;;;;;;;;;;;;;20.76;35.21;99632.63;103535;1308;61300;-81
2023/03/12 00:26:21;;;;;;;;;;;;;;;20.76;35.24;99631.92;103584;1312;61320;-81
2023/03/12 00:28:47;;;;;;;;;;;;;;;20.76;35.21;99633.02;103574;1308;61319;-81
2023/03/12 00:31:33;;;;;;;;;;;;;;;20.75;35.16;99638.05;103414;1308;61349;-81
2023/03/12 00:33:59;;;;;;;;;;;;;;;20.75;35.08;99640.61;103550;1309;61406;-81
2023/03/12 00:36:25;;;;;;;;;;;;;;;20.75;35.18;99638.82;103494;1308;59947;-81
2023/03/12 00:38:51;;;;;;;;;;;;;;;20.75;35.17;99638.45;103625;1309;59339;-82
2023/03/12 00:41:18;;;;;;;;;;;;;;;20.74;35.05;99641.73;103579;1308;61326;-81
2023/03/12 00:43:45;;;;;;;;;;;;;;;20.74;35.09;99644.09;103770;1308;61205;-81
2023/03/12 00:46:10;;;;;;;;;;;;;;;20.74;35.10;99647.30;103755;1309;61281;-81
2023/03/12 00:48:36;;;;;;;;;;;;;;;20.74;35.03;99646.06;103780;1314;61404;-81
2023/03/12 00:51:01;;;;;;;;;;;;;;;20.73;34.88;99650.73;103565;1309;61393;-81
2023/03/12 00:53:27;;;;;;;;;;;;;;;20.73;34.94;99653.27;103772;1308;61999;-81
2023/03/12 00:55:52;;;;;;;;;;;;;;;20.73;34.98;99652.78;103627;1310;59525;-81
2023/03/12 00:58:18;;;;;;;;;;;;;;;20.73;35.05;99649.20;103535;1308;61399;-81
2023/03/12 01:00:44;;;;;;;;;;;;;;;20.72;34.99;99648.72;103546;1308;61342;-81
2023/03/12 01:03:09;;;;;;;;;;;;;;;20.72;34.93;99648.71;103561;1308;61320;-79
2023/03/12 01:05:36;;;;;;;;;;;;;;;20.72;34.74;99646.05;103590;1308;61317;-80
2023/03/12 01:08:03;;;;;;;;;;;;;;;20.72;34.86;99641.98;103573;1308;61299;-81
2023/03/12 01:10:28;;;;;;;;;;;;;;;20.71;34.78;99645.41;103784;1308;61269;-80
2023/03/12 01:12:54;;;;;;;;;;;;;;;20.72;34.78;99647.51;103798;1308;61425;-80
2023/03/12 01:15:19;;;;;;;;;;;;;;;20.71;34.82;99653.65;103780;1308;61324;-80
2023/03/12 01:17:45;;;;;;;;;;;;;;;20.70;34.76;99657.63;103537;1308;61349;-80
2023/03/12 01:20:11;;;;;;;;;;;;;;;20.71;34.66;99659.93;103494;1308;61309;-80
2023/03/12 01:22:37;;;;;;;;;;;;;;;20.70;34.66;99658.19;103570;1308;61404;-81
2023/03/12 01:25:03;;;;;;;;;;;;;;;20.70;34.67;99660.36;103561;1308;61276;-81
2023/03/12 01:27:28;;;;;;;;;;;;;;;20.70;34.69;99662.88;103768;1308;61321;-81
2023/03/12 01:29:54;;;;;;;;;;;;;;;20.69;34.61;99667.58;103798;1314;61428;-82
2023/03/12 01:32:20;;;;;;;;;;;;;;;20.69;34.64;99670.27;103598;1309;61390;-81
2023/03/12 01:34:46;;;;;;;;;;;;;;;20.69;34.73;99673.52;103542;1308;73594;-80
2023/03/12 01:37:11;;;;;;;;;;;;;;;20.69;34.73;99675.85;103556;1309;63104;-80
2023/03/12 01:39:37;;;;;;;;;;;;;;;20.68;34.58;99680.89;103573;1314;61515;-80
2023/03/12 01:42:03;;;;;;;;;;;;;;;20.68;34.48;99685.02;103742;1308;61310;-81
2023/03/12 01:44:28;;;;;;;;;;;;;;;20.68;34.56;99681.80;103567;1308;61417;-81
2023/03/12 01:46:54;;;;;;;;;;;;;;;20.67;34.52;99681.66;103756;1308;61342;-81
2023/03/12 01:49:26;;;;;;;;;;;;;;;20.67;34.56;99682.39;103580;1309;61323;-81
2023/03/12 01:51:58;;;;;;;;;;;;;;;20.67;34.46;99689.21;103776;1308;61071;-81
2023/03/12 01:54:34;;;;;;;;;;;;;;;20.66;34.39;99688.54;103791;1309;73504;-81
2023/03/12 01:57:00;;;;;;;;;;;;;;;20.67;34.50;99688.70;103575;1308;76678;-81
2023/03/12 01:59:30;;;;;;;;;;;;;;;20.66;34.38;99697.88;103584;1309;61279;-80
2023/03/12 02:01:56;;;;;;;;;;;;;;;20.66;34.52;99699.86;103775;1308;61224;-80
2023/03/12 02:04:22;;;;;;;;;;;;;;;20.65;34.31;99706.17;103527;1310;61410;-80
2023/03/12 02:06:57;;;;;;;;;;;;;;;20.65;34.42;99705.64;103347;1315;59722;-80
2023/03/12 02:09:23;;;;;;;;;;;;;;;20.65;34.44;99704.20;103780;1308;61295;-81
2023/03/12 02:11:49;;;;;;;;;;;;;;;20.65;34.31;99708.19;103774;1308;61428;-81
2023/03/12 02:14:15;;;;;;;;;;;;;;;20.64;34.23;99711.41;103587;1308;61300;-81
2023/03/12 02:16:41;;;;;;;;;;;;;;;20.64;34.24;99714.46;103546;1308;59432;-81
2023/03/12 02:19:09;;;;;;;;;;;;;;;20.64;34.19;99720.23;103577;1309;61377;-81
2023/03/12 02:21:36;;;;;;;;;;;;;;;20.64;34.37;99728.98;103575;1308;61150;-81
2023/03/12 02:24:40;;;;;;;;;;;;;;;20.64;34.25;99730.45;103601;1308;72410;-80
2023/03/12 02:27:06;;;;;;;;;;;;;;;20.63;34.25;99727.84;102797;1317;75443;-79
2023/03/12 02:29:31;;;;;;;;;;;;;;;20.63;34.23;99736.20;102864;1317;59655;-81
2023/03/12 02:31:57;;;;;;;;;;;;;;;20.63;34.22;99736.95;103084;1308;61304;-80
2023/03/12 02:34:23;;;;;;;;;;;;;;;20.63;34.25;99741.77;103592;1308;61614;-80
2023/03/12 02:36:48;;;;;;;;;;;;;;;20.62;34.18;99746.46;103831;1308;61297;-80
2023/03/12 02:39:14;;;;;;;;;;;;;;;20.61;34.14;99753.86;103567;1308;75490;-81
2023/03/12 02:41:53;;;;;;;;;;;;;;;20.62;34.16;99759.58;103537;1314;61471;-80
2023/03/12 02:44:37;;;;;;;;;;;;;;;20.61;34.15;99760.84;103578;1308;61372;-80
2023/03/12 02:47:03;;;;;;;;;;;;;;;20.60;34.10;99768.23;103531;1308;72425;-80
2023/03/12 02:49:30;;;;;;;;;;;;;;;20.60;34.10;99774.30;103608;1308;61218;-81
2023/03/12 02:51:55;;;;;;;;;;;;;;;20.60;34.20;99781.09;103596;1308;59208;-81
2023/03/12 02:54:22;;;;;;;;;;;;;;;20.60;34.01;99786.88;103633;1308;61336;-80
2023/03/12 02:56:47;;;;;;;;;;;;;;;20.60;34.10;99790.45;103482;1314;61190;-80
2023/03/12 02:59:13;;;;;;;;;;;;;;;20.59;34.07;99790.66;103555;1308;61339;-80
2023/03/12 03:01:39;;;;;;;;;;;;;;;20.59;34.06;99789.95;103764;1308;61911;-80
2023/03/12 03:04:05;;;;;;;;;;;;;;;20.59;33.93;99795.68;103559;1309;61432;-80
2023/03/12 03:06:31;;;;;;;;;;;;;;;20.59;34.03;99798.56;103360;1309;61423;-81
2023/03/12 03:08:57;;;;;;;;;;;;;;;20.59;34.04;99798.58;103560;1312;73376;-81
2023/03/12 03:11:23;;;;;;;;;;;;;;;20.58;34.07;99801.84;103581;1310;61282;-80
2023/03/12 03:13:50;;;;;;;;;;;;;;;20.58;33.94;99802.19;103648;1308;61394;-80
2023/03/12 03:16:15;;;;;;;;;;;;;;;20.58;34.00;99802.95;103552;1314;61349;-80
2023/03/12 03:18:41;;;;;;;;;;;;;;;20.58;33.97;99805.65;103613;1312;61456;-81
2023/03/12 03:21:07;;;;;;;;;;;;;;;20.57;34.03;99810.33;103772;1308;61422;-80
2023/03/12 03:23:32;;;;;;;;;;;;;;;20.57;33.98;99817.67;103545;1311;61454;-80
2023/03/12 03:25:58;;;;;;;;;;;;;;;20.57;34.01;99816.44;103774;1311;61271;-81
2023/03/12 03:28:24;;;;;;;;;;;;;;;20.57;33.89;99823.58;103259;1308;61234;-80
2023/03/12 03:30:54;;;;;;;;;;;;;;;20.56;33.92;99827.98;103796;1309;61331;-81
2023/03/12 03:33:20;;;;;;;;;;;;;;;20.56;33.94;99832.95;103760;1311;74945;-81
2023/03/12 03:35:46;;;;;;;;;;;;;;;20.55;33.90;99835.56;103594;1308;61285;-80
2023/03/12 03:38:12;;;;;;;;;;;;;;;20.55;33.79;99840.92;103399;1312;61304;-80
2023/03/12 03:40:46;;;;;;;;;;;;;;;20.55;33.84;99843.80;103532;1308;61426;-81
2023/03/12 03:43:12;;;;;;;;;;;;;;;20.55;33.93;99841.64;103575;1310;74515;-81
2023/03/12 03:45:37;;;;;;;;;;;;;;;20.54;33.79;99844.92;103551;1314;61355;-81
2023/03/12 03:48:03;;;;;;;;;;;;;;;20.54;34.01;99850.10;103771;1308;61446;-81
2023/03/12 03:50:29;;;;;;;;;;;;;;;20.54;33.67;99855.45;103564;1308;61385;-81
2023/03/12 03:52:54;;;;;;;;;;;;;;;20.54;33.80;99864.25;103637;1308;61442;-81
2023/03/12 03:55:20;;;;;;;;;;;;;;;20.54;33.76;99874.64;103523;1308;75776;-80
2023/03/12 03:57:45;;;;;;;;;;;;;;;20.53;33.84;99880.75;103537;1309;61357;-79
2023/03/12 04:00:12;;;;;;;;;;;;;;;20.53;33.78;99885.80;103609;1308;61321;-80
2023/03/12 04:02:37;;;;;;;;;;;;;;;20.52;33.79;99889.92;103754;1308;61274;-81
2023/03/12 04:05:03;;;;;;;;;;;;;;;20.51;33.73;99883.73;103742;1308;59611;-81
2023/03/12 04:07:29;;;;;;;;;;;;;;;20.52;33.69;99892.30;103567;1309;61499;-80
2023/03/12 04:09:56;;;;;;;;;;;;;;;20.51;33.78;99894.84;103606;1309;61305;-81
2023/03/12 04:12:24;;;;;;;;;;;;;;;20.52;33.70;99900.36;103595;1309;62238;-80
2023/03/12 04:14:52;;;;;;;;;;;;;;;20.51;33.84;99903.96;103551;1308;73585;-80
2023/03/12 04:17:17;;;;;;;;;;;;;;;20.51;33.68;99912.02;103574;1311;61346;-80
2023/03/12 04:19:43;;;;;;;;;;;;;;;20.51;33.56;99907.57;103624;1308;61436;-80
2023/03/12 04:22:08;;;;;;;;;;;;;;;20.51;33.66;99909.92;103585;1308;61346;-81
2023/03/12 04:24:34;;;;;;;;;;;;;;;20.50;33.61;99916.54;103617;1309;61305;-80
2023/03/12 04:27:00;;;;;;;;;;;;;;;20.49;33.60;99917.70;103573;1308;72749;-79
2023/03/12 04:29:25;;;;;;;;;;;;;;;20.50;33.69;99924.64;103762;1308;61249;-80
2023/03/12 04:31:51;;;;;;;;;;;;;;;20.50;33.55;99926.09;103616;1308;61356;-80
2023/03/12 04:34:17;;;;;;;;;;;;;;;20.49;33.50;99925.23;103791;1308;61130;-80
2023/03/12 04:36:43;;;;;;;;;;;;;;;20.49;33.60;99927.02;103553;1308;61502;-80
2023/03/12 04:39:09;;;;;;;;;;;;;;;20.49;33.58;99934.35;103758;1308;61228;-80
2023/03/12 04:41:35;;;;;;;;;;;;;;;20.49;33.63;99937.92;103596;1308;61358;-81
2023/03/12 04:44:00;;;;;;;;;;;;;;;20.48;33.62;99936.93;103546;1313;60966;-81
2023/03/12 04:46:26;;;;;;;;;;;;;;;20.49;33.54;99938.88;103731;1309;61298;-81
2023/03/12 04:48:51;;;;;;;;;;;;;;;20.48;33.51;99944.09;103520;1309;61474;-81
2023/03/12 04:51:17;;;;;;;;;;;;;;;20.48;33.58;99953.42;103575;1308;61263;-80
2023/03/12 04:53:43;;;;;;;;;;;;;;;20.48;33.57;99959.11;103649;1308;61333;-80
2023/03/12 04:56:08;;;;;;;;;;;;;;;20.48;33.55;99953.23;103531;1308;61199;-80
2023/03/12 04:58:34;;;;;;;;;;;;;;;20.47;33.52;99957.74;103592;1308;61288;-80
2023/03/12 05:01:01;;;;;;;;;;;;;;;20.47;33.40;99962.04;103602;1309;61313;-81
2023/03/12 05:03:26;;;;;;;;;;;;;;;20.47;33.41;99975.08;103530;1308;61308;-81
2023/03/12 05:05:52;;;;;;;;;;;;;;;20.47;33.41;99979.39;103558;1309;61277;-81
2023/03/12 05:08:17;;;;;;;;;;;;;;;20.47;33.45;99985.63;103573;1308;61349;-81
2023/03/12 05:10:46;;;;;;;;;;;;;;;20.47;33.49;99989.40;103395;1312;61493;-81
2023/03/12 05:13:15;;;;;;;;;;;;;;;20.47;33.48;99992.81;103514;1308;72417;-79
2023/03/12 05:15:41;;;;;;;;;;;;;;;20.46;33.42;99995.55;103697;1308;74470;-81
2023/03/12 05:18:07;;;;;;;;;;;;;;;20.46;33.36;100002.36;103421;1309;59416;-81
2023/03/12 05:20:32;;;;;;;;;;;;;;;20.47;33.39;100010.17;103817;1308;61314;-82
2023/03/12 05:22:58;;;;;;;;;;;;;;;20.47;33.31;100004.27;103509;1308;61455;-81
2023/03/12 05:25:23;;;;;;;;;;;;;;;20.46;33.41;100008.79;103780;1309;61346;-81
2023/03/12 05:27:49;;;;;;;;;;;;;;;20.46;33.22;100018.81;103629;1308;61416;-81
2023/03/12 05:30:14;;;;;;;;;;;;;;;20.46;33.24;100024.38;103609;1308;61262;-82
2023/03/12 05:32:40;;;;;;;;;;;;;;;20.46;33.32;100026.34;103778;1308;61339;-81
2023/03/12 05:35:05;;;;;;;;;;;;;;;20.45;33.20;100030.12;103585;1308;61330;-81
2023/03/12 05:37:31;;;;;;;;;;;;;;;20.45;33.38;100033.15;103777;1308;61713;-81
2023/03/12 05:39:56;;;;;;;;;;;;;;;20.46;33.33;100038.14;103654;1308;61463;-81
2023/03/12 05:42:22;;;;;;;;;;;;;;;20.45;33.15;100047.64;103536;1308;61432;-81
2023/03/12 05:44:49;;;;;;;;;;;;;;;20.45;33.21;100054.46;103350;1308;61340;-79
2023/03/12 05:47:15;;;;;;;;;;;;;;;20.44;33.26;100062.89;103724;1308;61019;-82
2023/03/12 05:49:40;;;;;;;;;;;;;;;20.44;33.21;100071.10;103608;1314;61330;-81
2023/03/12 05:52:06;;;;;;;;;;;;;;;20.44;33.23;100082.19;103650;1308;59336;-81
2023/03/12 05:54:32;;;;;;;;;;;;;;;20.44;33.13;100086.52;103639;1308;61426;-81
2023/03/12 05:56:58;;;;;;;;;;;;;;;20.43;33.14;100090.65;103539;1308;61506;-81
2023/03/12 05:59:24;;;;;;;;;;;;;;;20.44;33.14;100098.14;103608;1308;61340;-81
2023/03/12 06:01:49;;;;;;;;;;;;;;;20.43;33.22;100102.48;103568;1308;61278;-80
2023/03/12 06:04:15;;;;;;;;;;;;;;;20.43;33.10;100109.82;103536;1308;61366;-81
2023/03/12 06:06:41;;;;;;;;;;;;;;;20.43;33.01;100115.02;103546;1308;61432;-80
2023/03/12 06:09:06;;;;;;;;;;;;;;;20.43;32.96;100122.15;103591;1308;61272;-80
2023/03/12 06:11:32;;;;;;;;;;;;;;;20.43;32.92;100129.30;103588;1308;61342;-80
2023/03/12 06:13:58;;;;;;;;;;;;;;;20.42;32.83;100132.72;103569;1308;61308;-81
2023/03/12 06:16:24;;;;;;;;;;;;;;;20.43;33.04;100139.52;103556;1309;61313;-80
2023/03/12 06:18:56;;;;;;;;;;;;;;;20.42;33.04;100148.64;103762;1308;61193;-82
2023/03/12 06:21:22;;;;;;;;;;;;;;;20.42;32.98;100159.90;103754;1308;72582;-80
2023/03/12 06:23:48;;;;;;;;;;;;;;;20.42;32.89;100166.71;103728;1308;61558;-81
2023/03/12 06:26:13;;;;;;;;;;;;;;;20.42;32.90;100170.84;103554;1308;61426;-81
2023/03/12 06:28:39;;;;;;;;;;;;;;;20.42;33.03;100175.30;103555;1308;61451;-81
2023/03/12 06:31:05;;;;;;;;;;;;;;;20.42;33.06;100185.31;103794;1308;61305;-80
2023/03/12 06:33:30;;;;;;;;;;;;;;;20.42;32.84;100193.19;103537;1308;61316;-81
2023/03/12 06:35:56;;;;;;;;;;;;;;;20.42;32.94;100196.95;103830;1308;61307;-80
2023/03/12 06:38:22;;;;;;;;;;;;;;;20.42;32.95;100202.84;103594;1309;61310;-80
2023/03/12 06:40:55;;;;;;;;;;;;;;;20.42;32.90;100202.64;103838;1308;61426;-80
2023/03/12 06:43:20;;;;;;;;;;;;;;;20.42;32.97;100210.66;103754;1308;72541;-81
2023/03/12 06:45:47;;;;;;;;;;;;;;;20.42;32.87;100224.08;103553;1308;61968;-80
2023/03/12 06:48:12;;;;;;;;;;;;;;;20.42;32.97;100226.02;103584;1308;61349;-80
2023/03/12 06:50:38;;;;;;;;;;;;;;;20.42;32.97;100226.61;103600;1308;62102;-82
2023/03/12 06:53:03;;;;;;;;;;;;;;;20.42;32.95;100227.48;103526;1308;61262;-81
2023/03/12 06:55:29;;;;;;;;;;;;;;;20.42;33.00;100225.03;103590;1311;61399;-80
2023/03/12 06:57:55;;;;;;;;;;;;;;;20.42;32.89;100231.60;103355;1308;73412;-82
2023/03/12 07:00:20;;;;;;;;;;;;;;;20.42;32.86;100235.73;103593;1311;61336;-81
2023/03/12 07:02:46;;;;;;;;;;;;;;;20.42;32.89;100240.90;102929;1308;840327;-80
2023/03/12 07:05:11;;;;;;;;;;;;;;;20.41;32.89;100243.83;103555;1310;61262;-79
2023/03/12 07:07:38;;;;;;;;;;;;;;;20.41;32.77;100249.71;103469;1308;60067;-79
2023/03/12 07:10:05;;;;;;;;;;;;;;;20.41;32.83;100257.94;103659;1311;61444;-81
2023/03/12 07:12:31;;;;;;;;;;;;;;;20.41;32.78;100266.73;103603;1308;61218;-80
2023/03/12 07:14:57;;;;;;;;;;;;;;;20.41;32.90;100272.45;103598;1311;62530;-80
2023/03/12 07:17:26;;;;;;;;;;;;;;;20.41;32.84;100277.11;103811;1308;61288;-81
2023/03/12 07:19:51;;;;;;;;;;;;;;;20.40;32.80;100273.91;103599;1309;73428;-81
2023/03/12 07:22:17;;;;;;;;;;;;;;;20.40;32.83;100283.38;103801;1308;61298;-81
2023/03/12 07:24:42;;;;;;;;;;;;;;;20.40;32.87;100291.61;103511;1308;61381;-81
2023/03/12 07:27:08;;;;;;;;;;;;;;;20.40;32.88;100297.17;103575;1308;61590;-80
2023/03/12 07:29:34;;;;;;;;;;;;;;;20.39;32.93;100304.73;103546;1308;61377;-81
2023/03/12 07:32:00;;;;;;;;;;;;;;;20.40;32.85;100318.11;103603;1309;61495;-82
2023/03/12 07:34:25;;;;;;;;;;;;;;;20.39;32.79;100320.48;103612;1309;61375;-80
2023/03/12 07:36:51;;;;;;;;;;;;;;;20.39;32.88;100321.93;103578;1308;61488;-80
2023/03/12 07:39:18;;;;;;;;;;;;;;;20.39;32.87;100322.83;103589;1308;61294;-80
2023/03/12 07:41:43;;;;;;;;;;;;;;;20.39;32.72;100330.34;103612;1308;61317;-80
2023/03/12 07:44:09;;;;;;;;;;;;;;;20.39;32.84;100334.10;103593;1309;61300;-80
2023/03/12 07:46:34;;;;;;;;;;;;;;;20.38;32.93;100333.22;103717;1308;61282;-79
2023/03/12 07:49:00;;;;;;;;;;;;;;;20.38;32.86;100339.31;103639;1308;61417;-80
2023/03/12 07:51:26;;;;;;;;;;;;;;;20.38;32.87;100348.60;103812;1309;72619;-80
2023/03/12 07:53:52;;;;;;;;;;;;;;;20.38;32.96;100354.89;103562;1308;61344;-82
2023/03/12 07:56:17;;;;;;;;;;;;;;;20.37;32.85;100356.88;103527;1308;61298;-81
2023/03/12 07:58:43;;;;;;;;;;;;;;;20.38;32.84;100368.83;103615;1308;61788;-82
2023/03/12 08:01:08;;;;;;;;;;;;;;;20.37;32.85;100375.48;103655;1308;61301;-81
2023/03/12 08:03:34;;;;;;;;;;;;;;;20.38;32.76;100382.25;103370;1308;72541;-81
2023/03/12 08:06:01;;;;;;;;;;;;;;;20.37;32.85;100392.12;103767;1311;59053;-81
2023/03/12 08:08:27;;;;;;;;;;;;;;;20.37;32.89;100396.42;103730;1308;61281;-81
2023/03/12 08:10:52;;;;;;;;;;;;;;;20.37;32.81;100399.11;103398;1311;61448;-80
2023/03/12 08:13:18;;;;;;;;;;;;;;;20.36;32.85;100394.70;103573;1308;61406;-81
2023/03/12 08:15:45;;;;;;;;;;;;;;;20.36;32.72;100401.14;103575;1314;61749;-80
2023/03/12 08:18:11;;;;;;;;;;;;;;;20.36;32.88;100408.10;103769;1309;61346;-81
2023/03/12 08:20:36;;;;;;;;;;;;;;;20.36;33.01;100412.60;103832;1308;61292;-81
2023/03/12 08:23:02;;;;;;;;;;;;;;;20.36;32.92;100420.32;103869;1308;61276;-81
2023/03/12 08:25:27;;;;;;;;;;;;;;;20.36;32.81;100424.22;103544;1314;72341;-81
2023/03/12 08:27:53;;;;;;;;;;;;;;;20.35;32.75;100423.36;103568;1308;61294;-81
2023/03/12 08:30:18;;;;;;;;;;;;;;;20.35;32.72;100428.75;103612;1309;61538;-82
2023/03/12 08:32:44;;;;;;;;;;;;;;;20.35;32.91;100429.63;103540;1308;61336;-81
2023/03/12 08:35:10;;;;;;;;;;;;;;;20.35;32.84;100435.73;103812;1310;61295;-81
2023/03/12 08:37:35;;;;;;;;;;;;;;;20.35;32.78;100442.71;103557;1313;72607;-81
2023/03/12 08:40:01;;;;;;;;;;;;;;;20.35;32.90;100443.76;103578;1308;61391;-80
2023/03/12 08:42:26;;;;;;;;;;;;;;;20.34;32.82;100447.73;103567;1308;59768;-81
2023/03/12 08:44:52;;;;;;;;;;;;;;;20.34;32.73;100450.61;103599;1308;61313;-81
2023/03/12 08:47:17;;;;;;;;;;;;;;;20.34;32.65;100452.58;103793;1308;61311;-81
2023/03/12 08:49:43;;;;;;;;;;;;;;;20.34;32.67;100457.42;103743;1309;72552;-81
2023/03/12 08:52:09;;;;;;;;;;;;;;;20.33;32.55;100461.55;103585;1314;61346;-81
2023/03/12 08:54:36;;;;;;;;;;;;;;;20.33;32.59;100463.16;103598;1308;61262;-81
2023/03/12 08:57:01;;;;;;;;;;;;;;;20.34;32.57;100465.45;103598;1308;61420;-81
2023/03/12 08:59:27;;;;;;;;;;;;;;;20.34;32.51;100467.07;103598;1308;61317;-81
2023/03/12 09:01:53;;;;;;;;;;;;;;;20.34;32.58;100471.36;103597;1308;61349;-81
2023/03/12 09:04:18;;;;;;;;;;;;;;;20.34;32.65;100478.14;103803;1308;59531;-81
2023/03/12 09:06:44;;;;;;;;;;;;;;;20.34;32.43;100483.50;103708;1308;61180;-81
2023/03/12 09:09:09;;;;;;;;;;;;;;;20.34;32.58;100486.20;103780;1312;62099;-80
2023/03/12 09:11:38;;;;;;;;;;;;;;;20.33;32.46;100490.34;103590;1308;61308;-81
2023/03/12 09:14:05;;;;;;;;;;;;;;;20.34;32.45;100495.15;103624;1311;75949;-81
2023/03/12 09:16:31;;;;;;;;;;;;;;;20.33;32.32;100492.67;103556;1308;61276;-81
2023/03/12 09:18:57;;;;;;;;;;;;;;;20.33;32.36;100493.78;103593;1311;61313;-81
2023/03/12 09:21:22;;;;;;;;;;;;;;;20.33;32.48;100499.13;103822;1308;61404;-82
2023/03/12 09:23:48;;;;;;;;;;;;;;;20.33;32.41;100506.61;103596;1308;61802;-81
2023/03/12 09:26:14;;;;;;;;;;;;;;;20.32;32.34;100507.59;103792;1308;61318;-81
2023/03/12 09:28:41;;;;;;;;;;;;;;;20.33;32.34;100508.64;103641;1308;61335;-81
2023/03/12 09:31:07;;;;;;;;;;;;;;;20.32;32.30;100512.78;103766;1308;61220;-79
2023/03/12 09:33:34;;;;;;;;;;;;;;;20.32;32.23;100519.39;103585;1308;61323;-81
2023/03/12 09:36:01;;;;;;;;;;;;;;;20.31;32.23;100520.87;103514;1309;61289;-80
2023/03/12 09:38:26;;;;;;;;;;;;;;;20.32;32.21;100523.71;103708;1311;61346;-80
2023/03/12 09:40:52;;;;;;;;;;;;;;;20.32;32.16;100528.52;103563;1308;61211;-81
2023/03/12 09:43:17;;;;;;;;;;;;;;;20.32;32.24;100527.97;103590;1308;61307;-81
2023/03/12 09:45:43;;;;;;;;;;;;;;;20.32;32.18;100531.17;103789;1308;61367;-81
2023/03/12 09:48:13;;;;;;;;;;;;;;;20.32;32.10;100535.81;103583;1308;61436;-81
2023/03/12 09:50:42;;;;;;;;;;;;;;;20.32;32.11;100534.20;103590;1308;61422;-81
2023/03/12 09:53:27;;;;;;;;;;;;;;;20.33;32.05;100535.25;103618;1308;61263;-81
2023/03/12 09:55:54;;;;;;;;;;;;;;;20.32;32.07;100536.01;103740;1309;73398;-80
2023/03/12 09:58:27;;;;;;;;;;;;;;;20.32;32.09;100542.77;103561;1308;75415;-81
2023/03/12 10:01:13;;;;;;;;;;;;;;;20.32;32.04;100548.52;103801;1308;61310;-80
2023/03/12 10:03:57;;;;;;;;;;;;;;;20.33;31.95;100550.97;103287;1308;61454;-81
2023/03/12 10:06:31;;;;;;;;;;;;;;;20.33;32.09;100555.98;103743;1308;72673;-81
2023/03/12 10:09:16;;;;;;;;;;;;;;;20.32;32.06;100560.70;103589;1308;75554;-81
2023/03/12 10:12:14;;;;;;;;;;;;;;;20.32;31.91;100561.05;103786;1309;61349;-81
2023/03/12 10:14:55;;;;;;;;;;;;;;;20.32;31.95;100563.02;103098;1314;61279;-80
2023/03/12 10:17:43;;;;;;;;;;;;;;;20.32;31.94;100566.77;103118;1320;72810;-80
2023/03/12 10:20:32;;;;;;;;;;;;;;;20.32;31.93;100566.41;102604;1320;74582;-81
2023/03/12 10:23:08;;;;;;;;;;;;;;;20.32;31.86;100566.59;102542;1320;61331;-81
2023/03/12 10:25:48;;;;;;;;;;;;;;;20.32;31.78;100569.83;102540;1320;61504;-80
2023/03/12 10:28:17;;;;;;;;;;;;;;;20.32;31.86;100563.56;102525;1320;73553;-80
2023/03/12 10:30:48;;;;;;;;;;;;;;;20.32;31.75;100564.27;102576;1320;75869;-80
2023/03/12 10:33:16;;;;;;;;;;;;;;;20.31;31.80;100564.88;102438;1320;61196;-80
2023/03/12 10:35:42;;;;;;;;;;;;;;;20.31;31.76;100568.40;102491;1321;61211;-81
2023/03/12 10:38:13;;;;;;;;;;;;;;;20.31;31.72;100574.31;102529;1321;61353;-81
2023/03/12 10:40:39;;;;;;;;;;;;;;;20.31;31.80;100571.45;102587;1320;75733;-80
2023/03/12 10:43:05;;;;;;;;;;;;;;;20.31;31.72;100570.40;102566;1323;61354;-81
2023/03/12 10:45:37;;;;;;;;;;;;;;;20.31;31.67;100572.73;102521;1320;62070;-81
2023/03/12 10:48:05;;;;;;;;;;;;;;;20.30;31.73;100571.15;102510;1323;71742;-81
2023/03/12 10:50:37;;;;;;;;;;;;;;;20.30;31.65;100569.38;102696;1317;74726;-80
2023/03/12 10:53:16;;;;;;;;;;;;;;;20.30;31.67;100569.71;102958;1317;61241;-80
2023/03/12 10:55:42;;;;;;;;;;;;;;;20.31;31.61;100569.52;102954;1316;61671;-81
2023/03/12 10:58:16;;;;;;;;;;;;;;;20.30;31.55;100564.55;103522;1308;61278;-81
2023/03/12 11:00:42;;;;;;;;;;;;;;;20.30;31.52;100565.63;103561;1308;74616;-81
2023/03/12 11:03:22;;;;;;;;;;;;;;;20.30;31.61;100559.75;103538;1311;61378;-81
2023/03/12 11:05:48;;;;;;;;;;;;;;;20.30;31.60;100563.33;103763;1308;61413;-82
2023/03/12 11:08:28;;;;;;;;;;;;;;;20.30;31.45;100556.89;103570;1309;73380;-82
2023/03/12 11:10:54;;;;;;;;;;;;;;;20.30;31.60;100555.11;103759;1308;74075;-80
2023/03/12 11:13:25;;;;;;;;;;;;;;;20.30;31.53;100558.00;103615;1314;61185;-81
2023/03/12 11:15:51;;;;;;;;;;;;;;;20.30;31.45;100554.77;103545;1308;61096;-80
2023/03/12 11:18:18;;;;;;;;;;;;;;;20.30;31.47;100553.91;103556;1308;61333;-81
2023/03/12 11:20:45;;;;;;;;;;;;;;;20.30;31.60;100556.21;103770;1308;75684;-81
2023/03/12 11:23:29;;;;;;;;;;;;;;;20.29;31.46;100559.47;103791;1308;61239;-81
2023/03/12 11:26:02;;;;;;;;;;;;;;;20.29;31.48;100561.78;103723;1308;61267;-81
2023/03/12 11:28:35;;;;;;;;;;;;;;;20.29;31.41;100563.98;103358;1310;72683;-81
2023/03/12 11:31:01;;;;;;;;;;;;;;;20.29;31.45;100567.00;103528;1312;75888;-81
2023/03/12 11:33:29;;;;;;;;;;;;;;;20.28;31.55;100564.55;103553;1312;61436;-81
2023/03/12 11:36:04;;;;;;;;;;;;;;;20.28;31.40;100564.90;103373;1310;61311;-80
2023/03/12 11:38:40;;;;;;;;;;;;;;;20.28;31.39;100566.35;103532;1311;73552;-81
2023/03/12 11:41:11;;;;;;;;;;;;;;;20.28;31.45;100569.40;103565;1314;74587;-81
2023/03/12 11:43:37;;;;;;;;;;;;;;;20.27;31.43;100566.19;103589;1310;61198;-81
2023/03/12 11:46:02;;;;;;;;;;;;;;;20.27;31.37;100565.50;103528;1311;61310;-81
2023/03/12 11:48:35;;;;;;;;;;;;;;;20.26;31.43;100565.36;103564;1312;61493;-81
2023/03/12 11:51:24;;;;;;;;;;;;;;;20.26;31.44;100563.43;103597;1314;73886;-81
2023/03/12 11:53:52;;;;;;;;;;;;;;;20.25;31.46;100565.96;103636;1312;61180;-80
2023/03/12 11:56:25;;;;;;;;;;;;;;;20.25;31.30;100565.63;103582;1311;61307;-79
2023/03/12 11:58:52;;;;;;;;;;;;;;;20.25;31.22;100563.98;103606;1310;72594;-81
2023/03/12 12:01:23;;;;;;;;;;;;;;;20.25;31.40;100564.55;103616;1311;61442;-80
2023/03/12 12:04:21;;;;;;;;;;;;;;;20.25;31.31;100563.69;103403;1312;61394;-81
2023/03/12 12:06:49;;;;;;;;;;;;;;;20.25;31.18;100560.80;103215;1311;61087;-81
2023/03/12 12:09:31;;;;;;;;;;;;;;;20.24;31.29;100558.71;103771;1309;71645;-81
2023/03/12 12:12:22;;;;;;;;;;;;;;;20.25;31.23;100562.24;103775;1308;74671;-81
2023/03/12 12:15:07;;;;;;;;;;;;;;;20.25;31.36;100563.49;102920;1315;61206;-81
2023/03/12 12:17:38;;;;;;;;;;;;;;;20.24;31.25;100561.55;103002;1316;61398;-81
2023/03/12 12:20:30;;;;;;;;;;;;;;;20.25;31.22;100571.34;103027;1315;73467;-81
2023/03/12 12:23:16;;;;;;;;;;;;;;;20.25;31.30;100569.77;102465;1322;73575;-79
2023/03/12 12:25:51;;;;;;;;;;;;;;;20.24;31.15;100570.16;102508;1323;61194;-80
2023/03/12 12:28:32;;;;;;;;;;;;;;;20.24;31.22;100566.20;102497;1323;61439;-80
2023/03/12 12:31:07;;;;;;;;;;;;;;;20.24;31.22;100567.10;102545;1323;73488;-82
2023/03/12 12:33:51;;;;;;;;;;;;;;;20.25;31.19;100568.51;102535;1324;74561;-82
2023/03/12 12:36:17;;;;;;;;;;;;;;;20.25;31.22;100574.23;102478;1323;61350;-81